^^
Meteo Knjazevac Station Historical Data
Daily Summary for December 9, 2021 Units:  Metric    English   Both
Daily Weekly Monthly Yearly Custom
  High: Low: Average:
Temperature: 4.4 °C -3.3 °C 0.3 °C
Dew Point: 2.6 °C -3.4 °C -0.2 °C
Humidity: 99% 88% 96%
Wind Speed: 11.3km/h 0km/h 4km/h
Wind Gust: 24.1km/h - -
Wind- - SE
Pressure: 1011.7 hPa 1008.4 hPa -
Precipitation: 0.25 mm    
Historical Graphs
 
 
Tabular Data for December 9, 2021
Time Temperature Dew Point Pressure Wind Wind Speed Wind Gust Humidity Rainfall Rate (Hourly) solar Conditions
00:00 -3.1 °C -3.4 °C 1011.7 hPa WNW 3.2 km/h 6.4 km/h 98% 0 mm 0 W/m2
00:10 -3.1 °C -3.4 °C 1011.4 hPa WNW 3.2 km/h 4.8 km/h 98% 0 mm 0 W/m2
00:20 -3.2 °C -3.4 °C 1011.7 hPa WNW 4.8 km/h 6.4 km/h 98% 0 mm 0 W/m2
00:30 -3.1 °C -3.2 °C 1011.4 hPa NW 3.2 km/h 8 km/h 99% 0 mm 0 W/m2
00:40 -3 °C -3.1 °C 1011.1 hPa NW 4.8 km/h 8 km/h 99% 0 mm 0 W/m2
00:50 -2.6 °C -2.7 °C 1011.1 hPa SSW 8 km/h 17.7 km/h 99% 0 mm 0 W/m2
01:00 -2.2 °C -2.5 °C 1011.1 hPa WSW 4.8 km/h 16.1 km/h 98% 0 mm 0 W/m2
01:10 -2.2 °C -2.5 °C 1011.1 hPa WNW 1.6 km/h 9.7 km/h 98% 0 mm 0 W/m2
01:20 -2.4 °C -2.7 °C 1011.1 hPa NW 4.8 km/h 8 km/h 98% 0 mm 0 W/m2
01:30 -2.4 °C -2.7 °C 1011.1 hPa North 3.2 km/h 8 km/h 98% 0 mm 0 W/m2
01:40 -2.6 °C -2.9 °C 1011.4 hPa WNW 4.8 km/h 8 km/h 98% 0 mm 0 W/m2
01:50 -2.6 °C -2.9 °C 1011.1 hPa NW 3.2 km/h 8 km/h 98% 0 mm 0 W/m2
02:00 -2.5 °C -2.8 °C 1011.1 hPa NNW 3.2 km/h 4.8 km/h 98% 0 mm 0 W/m2
02:10 -2.7 °C -2.9 °C 1011.1 hPa NW 1.6 km/h 6.4 km/h 98% 0 mm 0 W/m2
02:20 -2.8 °C -3.1 °C 1011.1 hPa Calm   4.8 km/h 98% 0 mm 0 W/m2
02:30 -2.9 °C -3.2 °C 1011.1 hPa NW 1.6 km/h 4.8 km/h 98% 0 mm 0 W/m2
02:40 -3 °C -3.3 °C 1010.7 hPa NW 1.6 km/h 6.4 km/h 98% 0 mm 0 W/m2
02:50 -3.1 °C -3.4 °C 1010.7 hPa WNW 4.8 km/h 9.7 km/h 98% 0 mm 0 W/m2
03:00 -3.1 °C -3.4 °C 1010.7 hPa NW 3.2 km/h 8 km/h 98% 0 mm 0 W/m2
03:10 -3.2 °C -3.4 °C 1010.7 hPa WNW 3.2 km/h 4.8 km/h 98% 0 mm 0 W/m2
03:20 -3.2 °C -3.4 °C 1010.7 hPa Calm   4.8 km/h 98% 0 mm 0 W/m2
03:30 -3.3 °C -3.4 °C 1010.7 hPa NNW 3.2 km/h 6.4 km/h 99% 0 mm 0 W/m2
03:40 -3.2 °C -3.3 °C 1010.7 hPa NW 3.2 km/h 4.8 km/h 99% 0 mm 0 W/m2
03:50 -3.3 °C -3.4 °C 1010.7 hPa NW 1.6 km/h 4.8 km/h 99% 0 mm 0 W/m2
04:00 -3 °C -3.1 °C 1010.7 hPa NNW 3.2 km/h 8 km/h 99% 0 mm 0 W/m2
04:10 -2.7 °C -2.8 °C 1010.7 hPa Calm   6.4 km/h 99% 0 mm 0 W/m2
04:20 -3 °C -3.1 °C 1010.7 hPa NW 1.6 km/h 4.8 km/h 99% 0 mm 0 W/m2
04:30 -3.1 °C -3.2 °C 1010.7 hPa NNE 1.6 km/h 11.3 km/h 99% 0 mm 0 W/m2
04:40 -2.9 °C -3.1 °C 1010.4 hPa SE 3.2 km/h 14.5 km/h 99% 0 mm 0 W/m2
04:50 -2.7 °C -2.8 °C 1010.7 hPa Calm   6.4 km/h 99% 0 mm 0 W/m2
05:00 -2.9 °C -3.1 °C 1010.4 hPa WNW 1.6 km/h 8 km/h 99% 0 mm 0 W/m2
05:10 -2.8 °C -2.9 °C 1010.4 hPa NNW 3.2 km/h 6.4 km/h 99% 0 mm 0 W/m2
05:20 -2.7 °C -2.8 °C 1010.4 hPa North 4.8 km/h 8 km/h 99% 0 mm 0 W/m2
05:30 -2.1 °C -2.2 °C 1010.4 hPa North 1.6 km/h 9.7 km/h 99% 0 mm 0 W/m2
05:40 -2 °C -2.1 °C 1010.4 hPa NNW 1.6 km/h 6.4 km/h 99% 0 mm 0 W/m2
05:50 -1.9 °C -2.1 °C 1010.7 hPa NNW 3.2 km/h 9.7 km/h 99% 0 mm 0 W/m2
06:00 -1.7 °C -1.8 °C 1010.7 hPa Calm   8 km/h 99% 0 mm 0 W/m2
06:10 -1.7 °C -1.8 °C 1010.7 hPa SE 8 km/h 19.3 km/h 99% 0 mm 0 W/m2
06:20 -1.6 °C -1.7 °C 1010.4 hPa SSE 1.6 km/h 19.3 km/h 99% 0 mm 0 W/m2
06:30 -1.1 °C -1.2 °C 1010.7 hPa ESE 4.8 km/h 16.1 km/h 99% 0 mm 0 W/m2
06:40 -0.6 °C -0.7 °C 1010.7 hPa SE 1.6 km/h 19.3 km/h 99% 0 mm 0 W/m2
06:50 -0.4 °C -0.7 °C 1010.7 hPa NNE 3.2 km/h 4.8 km/h 98% 0 mm 0 W/m2
07:00 -0.4 °C -0.7 °C 1010.7 hPa NNE 1.6 km/h 8 km/h 98% 0 mm 6 W/m2
07:10 -0.6 °C -1.2 °C 1010.7 hPa NNE 1.6 km/h 9.7 km/h 96% 0 mm 8 W/m2
07:20 -0.7 °C -1 °C 1010.4 hPa NNE 1.6 km/h 9.7 km/h 98% 0 mm 23 W/m2
07:30 -0.7 °C -1 °C 1010.4 hPa Calm   4.8 km/h 98% 0 mm 39 W/m2
07:40 -0.7 °C -1 °C 1010.4 hPa NE 1.6 km/h 4.8 km/h 98% 0 mm 47 W/m2
07:50 -0.7 °C -1 °C 1010.4 hPa WNW 1.6 km/h 3.2 km/h 98% 0 mm 69 W/m2
08:00 -0.6 °C -0.8 °C 1010.4 hPa NW 1.6 km/h 4.8 km/h 98% 0 mm 85 W/m2
08:10 -0.3 °C -0.6 °C 1010.4 hPa North 4.8 km/h 9.7 km/h 98% 0 mm 96 W/m2
08:20 0 °C -0.3 °C 1010.4 hPa NNE 3.2 km/h 9.7 km/h 98% 0 mm 120 W/m2
08:30 0.3 °C 0 °C 1010.7 hPa NNW 1.6 km/h 8 km/h 98% 0 mm 103 W/m2
08:40 0.5 °C 0.2 °C 1010.7 hPa Calm   9.7 km/h 98% 0 mm 91 W/m2
08:50 0.7 °C 0.4 °C 1010.7 hPa Calm   8 km/h 98% 0 mm 188 W/m2
09:00 1 °C 0.7 °C 1010.7 hPa NNE 4.8 km/h 11.3 km/h 98% 0 mm 125 W/m2
09:10 1.1 °C 0.6 °C 1010.4 hPa NNE 11.3 km/h 16.1 km/h 96% 0 mm 110 W/m2
09:20 1.1 °C 0.4 °C 1010.7 hPa NNE 11.3 km/h 16.1 km/h 95% 0 mm 103 W/m2
09:30 1.1 °C 0.4 °C 1010.7 hPa NNE 8 km/h 14.5 km/h 95% 0 mm 119 W/m2
09:40 1.1 °C 0.4 °C 1010.7 hPa NNE 1.6 km/h 9.7 km/h 95% 0 mm 123 W/m2
09:50 1.1 °C 0.4 °C 1010.7 hPa NNE 8 km/h 9.7 km/h 95% 0 mm 136 W/m2
10:00 1.3 °C 0.6 °C 1010.4 hPa NNE 8 km/h 16.1 km/h 95% 0 mm 181 W/m2
10:10 1.4 °C 0.7 °C 1010.4 hPa NNE 4.8 km/h 16.1 km/h 95% 0 mm 164 W/m2
10:20 1.5 °C 0.7 °C 1010.4 hPa NNE 11.3 km/h 14.5 km/h 94% 0 mm 171 W/m2
10:30 1.6 °C 0.7 °C 1010.4 hPa NNE 1.6 km/h 14.5 km/h 94% 0 mm 175 W/m2
10:40 1.7 °C 0.8 °C 1010 hPa NNE 3.2 km/h 11.3 km/h 94% 0 mm 175 W/m2
10:50 1.9 °C 1.1 °C 1010 hPa North 8 km/h 11.3 km/h 94% 0 mm 199 W/m2
11:00 2.3 °C 1.4 °C 1010 hPa North 4.8 km/h 9.7 km/h 94% 0 mm 333 W/m2
11:10 2.9 °C 2.1 °C 1010 hPa NNE 8 km/h 19.3 km/h 94% 0 mm 335 W/m2
11:20 3.3 °C 1.9 °C 1010.4 hPa NNE 8 km/h 14.5 km/h 91% 0 mm 276 W/m2
11:30 3.4 °C 2.1 °C 1010 hPa NNE 8 km/h 14.5 km/h 91% 0 mm 336 W/m2
11:40 3.6 °C 2.1 °C 1010 hPa North 3.2 km/h 19.3 km/h 90% 0 mm 321 W/m2
11:50 3.6 °C 2.1 °C 1010 hPa North 8 km/h 17.7 km/h 90% 0 mm 276 W/m2
12:00 3.8 °C 2.3 °C 1010 hPa North 8 km/h 16.1 km/h 90% 0 mm 320 W/m2
12:10 3.9 °C 2.3 °C 1009.7 hPa North 9.7 km/h 19.3 km/h 89% 0 mm 293 W/m2
12:20 4 °C 2.3 °C 1009.7 hPa North 8 km/h 19.3 km/h 89% 0 mm 286 W/m2
12:30 4.1 °C 2.4 °C 1009.4 hPa North 4.8 km/h 16.1 km/h 89% 0 mm 303 W/m2
12:40 4.2 °C 2.6 °C 1009.4 hPa NNE 11.3 km/h 19.3 km/h 89% 0 mm 293 W/m2
12:50 4.4 °C 2.6 °C 1009.4 hPa North 11.3 km/h 20.9 km/h 88% 0 mm 278 W/m2
13:00 4.4 °C 2.6 °C 1009.4 hPa North 8 km/h 19.3 km/h 88% 0 mm 245 W/m2
13:10 4.3 °C 2.5 °C 1009.4 hPa North 8 km/h 19.3 km/h 88% 0 mm 250 W/m2
13:20 4.2 °C 2.4 °C 1009.4 hPa North 11.3 km/h 19.3 km/h 88% 0 mm 175 W/m2
13:30 3.9 °C 2.1 °C 1009 hPa North 8 km/h 19.3 km/h 88% 0 mm 150 W/m2
13:40 3.6 °C 1.8 °C 1009 hPa North 8 km/h 19.3 km/h 88% 0 mm 138 W/m2
13:50 3.4 °C 1.8 °C 1009 hPa North 3.2 km/h 19.3 km/h 89% 0 mm 150 W/m2
14:00 3.2 °C 1.6 °C 1009.4 hPa North 8 km/h 14.5 km/h 89% 0 mm 173 W/m2
14:10 3.1 °C 1.4 °C 1009 hPa North 4.8 km/h 20.9 km/h 89% 0 mm 155 W/m2
14:20 2.9 °C 1.2 °C 1009 hPa North 8 km/h 22.5 km/h 89% 0 mm 93 W/m2
14:30 2.6 °C 1.1 °C 1009.4 hPa North 8 km/h 19.3 km/h 90% 0 mm 69 W/m2
14:40 2.3 °C 0.8 °C 1009.4 hPa North 8 km/h 20.9 km/h 90% 0 mm 62 W/m2
14:50 2.1 °C 0.8 °C 1009 hPa North 8 km/h 19.3 km/h 91% 0 mm 46 W/m2
15:00 1.9 °C 0.6 °C 1009 hPa North 4.8 km/h 17.7 km/h 91% 0 mm 51 W/m2
15:10 1.7 °C 0.7 °C 1009 hPa North 8 km/h 22.5 km/h 93% 0 mm 42 W/m2
15:20 1.6 °C 0.6 °C 1009 hPa North 8 km/h 14.5 km/h 93% 0 mm 26 W/m2
15:30 1.4 °C 0.6 °C 1009.4 hPa NNE 3.2 km/h 20.9 km/h 94% 0 mm 11 W/m2
15:40 1.3 °C 0.4 °C 1009.4 hPa North 4.8 km/h 24.1 km/h 94% 0 mm 12 W/m2
15:50 1.2 °C 0.3 °C 1009 hPa North 4.8 km/h 12.9 km/h 94% 0 mm 4 W/m2
16:00 1.1 °C 0.2 °C 1009.4 hPa NNW 3.2 km/h 9.7 km/h 94% 0 mm 0 W/m2
16:10 1 °C 0.3 °C 1009.4 hPa North 1.6 km/h 9.7 km/h 95% 0 mm 0 W/m2
16:20 0.9 °C 0.2 °C 1009.4 hPa North 3.2 km/h 12.9 km/h 95% 0 mm 0 W/m2
16:30 0.9 °C 0.2 °C 1009.4 hPa North 8 km/h 16.1 km/h 95% 0 mm 0 W/m2
16:40 0.8 °C 0.1 °C 1009 hPa NNE 3.2 km/h 11.3 km/h 95% 0 mm 0 W/m2
16:50 0.7 °C 0 °C 1009.4 hPa Calm   9.7 km/h 95% 0 mm 0 W/m2
17:00 0.7 °C 0.1 °C 1009.4 hPa North 3.2 km/h 11.3 km/h 96% 0 mm 0 W/m2
17:10 0.7 °C 0.1 °C 1009 hPa NE 1.6 km/h 8 km/h 96% 0 mm 0 W/m2
17:20 0.7 °C 0.1 °C 1009 hPa North 1.6 km/h 6.4 km/h 96% 0 mm 0 W/m2
17:30 0.6 °C 0.1 °C 1009 hPa NNW 3.2 km/h 9.7 km/h 96% 0 mm 0 W/m2
17:40 0.7 °C 0.4 °C 1009 hPa NNE 4.8 km/h 11.3 km/h 98% 0 mm 0 W/m2
17:50 0.7 °C 0.4 °C 1009 hPa North 3.2 km/h 12.9 km/h 98% 0 mm 0 W/m2
18:00 0.7 °C 0.4 °C 1008.7 hPa North 3.2 km/h 11.3 km/h 98% 0 mm 0 W/m2
18:10 0.8 °C 0.5 °C 1009 hPa North 1.6 km/h 17.7 km/h 98% 0 mm 0 W/m2
18:20 0.8 °C 0.5 °C 1008.7 hPa North 1.6 km/h 9.7 km/h 98% 0 mm 0 W/m2
18:30 0.9 °C 0.8 °C 1008.4 hPa North 4.8 km/h 11.3 km/h 99% 0 mm 0 W/m2
18:40 0.9 °C 0.8 °C 1008.7 hPa NNE 3.2 km/h 12.9 km/h 99% 0 mm 0 W/m2
18:50 0.9 °C 0.8 °C 1008.7 hPa North 3.2 km/h 12.9 km/h 99% 0 mm 0 W/m2
19:00 1 °C 0.8 °C 1008.7 hPa NNW 1.6 km/h 11.3 km/h 99% 0 mm 0 W/m2
19:10 1 °C 0.8 °C 1008.7 hPa NNW 1.6 km/h 9.7 km/h 99% 0 mm 0 W/m2
19:20 1.1 °C 0.9 °C 1008.7 hPa North 1.6 km/h 6.4 km/h 99% 0 mm 0 W/m2
19:30 1.1 °C 0.9 °C 1008.7 hPa North 4.8 km/h 9.7 km/h 99% 0 mm 0 W/m2
19:40 1.1 °C 0.9 °C 1008.7 hPa North 4.8 km/h 8 km/h 99% 0 mm 0 W/m2
19:50 1.2 °C 1 °C 1008.7 hPa NNE 3.2 km/h 8 km/h 99% 0 mm 0 W/m2
20:00 1.2 °C 1.1 °C 1008.7 hPa NNE 1.6 km/h 8 km/h 99% 0 mm 0 W/m2
20:10 1.2 °C 1.1 °C 1008.7 hPa NE 1.6 km/h 8 km/h 99% 0 mm 0 W/m2
20:20 1.2 °C 1.1 °C 1009 hPa Calm   4.8 km/h 99% 0 mm 0 W/m2
20:30 1.2 °C 1.1 °C 1009 hPa North 3.2 km/h 8 km/h 99% 0 mm 0 W/m2
20:40 1.2 °C 1.1 °C 1009 hPa North 4.8 km/h 9.7 km/h 99% 0 mm 0 W/m2
20:50 1.3 °C 1.2 °C 1009.4 hPa North 1.6 km/h 9.7 km/h 99% 0 mm 0 W/m2
21:00 1.3 °C 1.2 °C 1009.7 hPa NW 1.6 km/h 6.4 km/h 99% 0 mm 0 W/m2
21:10 1.4 °C 1.3 °C 1009.7 hPa WNW 1.6 km/h 6.4 km/h 99% 0 mm 0 W/m2
21:20 1.4 °C 1.3 °C 1009.7 hPa NNE 3.2 km/h 8 km/h 99% 0 mm 0 W/m2
21:30 1.4 °C 1.3 °C 1009.7 hPa NNE 1.6 km/h 8 km/h 99% 0 mm 0 W/m2
21:40 1.3 °C 1.2 °C 1009.4 hPa NNW 1.6 km/h 8 km/h 99% 0 mm 0 W/m2
21:50 1.3 °C 1.2 °C 1009.4 hPa NNW 1.6 km/h 11.3 km/h 99% 0 mm 0 W/m2
22:00 1.3 °C 1.2 °C 1009.7 hPa North 3.2 km/h 11.3 km/h 99% 0 mm 0 W/m2
22:10 1.2 °C 1.1 °C 1009.7 hPa North 4.8 km/h 11.3 km/h 99% 0 mm 0 W/m2
22:20 1.2 °C 1.1 °C 1009.7 hPa NNE 4.8 km/h 11.3 km/h 99% 0 mm 0 W/m2
22:30 1.2 °C 1.1 °C 1009.7 hPa NNE 4.8 km/h 11.3 km/h 99% 0 mm 0 W/m2
22:40 1.2 °C 1 °C 1009.7 hPa Calm   9.7 km/h 99% 0.25 mm 0 W/m2
22:50 1.1 °C 0.9 °C 1009.7 hPa North 1.6 km/h 8 km/h 99% 0 mm 0 W/m2
23:00 1.1 °C 0.9 °C 1009.7 hPa NNE 3.2 km/h 11.3 km/h 99% 0 mm 0 W/m2
23:10 1.1 °C 0.9 °C 1009.4 hPa North 1.6 km/h 9.7 km/h 99% 0 mm 0 W/m2
23:20 1.1 °C 0.9 °C 1009.4 hPa North 3.2 km/h 8 km/h 99% 0 mm 0 W/m2
23:30 1.1 °C 0.9 °C 1009.4 hPa NNE 1.6 km/h 9.7 km/h 99% 0 mm 0 W/m2
23:40 1 °C 0.8 °C 1009.4 hPa North 1.6 km/h 8 km/h 99% 0 mm 0 W/m2
23:50 1 °C 0.8 °C 1009 hPa Calm   4.8 km/h 99% 0 mm 0 W/m2
Knjazevac, Serbia
Compliments of Weather Underground - 2 mb